Time;durP1;ratioP1;P1;durP2;ratioP2;P2;SDS_P1;SDS_P2;PMS_P1;PMS_P2;Temp;Humidity;BMP_temperature;BMP_pressure;BME280_temperature;BME280_humidity;BME280_pressure;Samples;Min_cycle;Max_cycle;Signal;HPM_P1;HPM_P2
2022/12/07 00:00:54;;;;;;;37.00;18.13;;;;;;;8.77;100.00;100256.25;5087803;28;20097;-35
2022/12/07 00:03:19;;;;;;;39.47;17.90;;;;;;;9.05;100.00;100260.56;5087795;28;20254;-30
2022/12/07 00:05:44;;;;;;;38.05;19.38;;;;;;;8.86;100.00;100259.53;5087602;28;20377;-29
2022/12/07 00:08:10;;;;;;;40.92;19.95;;;;;;;9.05;100.00;100265.88;5087922;28;20024;-31
2022/12/07 00:10:35;;;;;;;36.90;18.05;;;;;;;8.95;100.00;100268.13;5087674;28;20024;-32
2022/12/07 00:13:01;;;;;;;43.42;20.10;;;;;;;9.08;100.00;100270.00;5087411;28;20027;-33
2022/12/07 00:15:26;;;;;;;40.58;20.02;;;;;;;9.05;100.00;100272.03;5087502;28;20028;-33
2022/12/07 00:17:52;;;;;;;37.33;19.30;;;;;;;8.85;100.00;100277.31;5087240;28;20055;-34
2022/12/07 00:20:17;;;;;;;35.47;17.95;;;;;;;8.81;100.00;100264.63;5069037;28;20067;-33
2022/12/07 00:22:43;;;;;;;34.67;18.60;;;;;;;8.81;100.00;100267.31;5087346;28;20032;-29
2022/12/07 00:25:08;;;;;;;33.85;18.38;;;;;;;9.00;100.00;100257.69;5069263;28;20024;-31
2022/12/07 00:27:33;;;;;;;34.70;17.30;;;;;;;8.84;100.00;100267.69;5087481;28;20793;-28
2022/12/07 00:29:59;;;;;;;34.70;17.90;;;;;;;8.85;100.00;100272.00;5086815;28;20028;-33
2022/12/07 00:32:24;;;;;;;39.08;18.08;;;;;;;8.94;100.00;100277.13;5068740;28;20032;-33
2022/12/07 00:34:50;;;;;;;33.58;17.27;;;;;;;8.87;100.00;100286.94;5087209;28;20103;-32
2022/12/07 00:37:15;;;;;;;37.67;16.92;;;;;;;9.13;100.00;100272.84;5087211;28;20036;-31
2022/12/07 00:39:40;;;;;;;33.75;17.08;;;;;;;9.07;99.99;100273.66;5086176;28;20510;-28
2022/12/07 00:42:06;;;;;;;35.13;17.20;;;;;;;9.00;100.00;100269.16;5086954;28;20028;-34
2022/12/07 00:44:31;;;;;;;37.88;18.40;;;;;;;9.01;100.00;100269.97;5087005;28;20032;-29
2022/12/07 00:46:57;;;;;;;36.03;17.65;;;;;;;9.01;100.00;100275.28;5087045;28;20036;-32
2022/12/07 00:49:22;;;;;;;31.35;16.42;;;;;;;8.94;100.00;100258.50;5087222;28;20024;-28
2022/12/07 00:51:48;;;;;;;30.08;15.27;;;;;;;8.97;100.00;100274.06;5086538;28;20050;-29
2022/12/07 00:54:14;;;;;;;35.40;16.10;;;;;;;8.79;100.00;100267.50;5087226;28;20030;-30
2022/12/07 00:56:39;;;;;;;34.10;17.40;;;;;;;8.67;100.00;100262.97;5086688;28;20028;-31
2022/12/07 00:59:05;;;;;;;34.22;16.42;;;;;;;8.72;100.00;100264.00;5086681;28;20039;-29
2022/12/07 01:01:33;;;;;;;32.10;15.68;;;;;;;8.57;100.00;100252.72;5086726;28;20046;-33
2022/12/07 01:04:01;;;;;;;32.88;15.77;;;;;;;8.38;100.00;100236.50;5068056;28;20109;-30
2022/12/07 01:06:26;;;;;;;32.25;16.42;;;;;;;8.44;100.00;100242.88;5068204;28;20423;-29
2022/12/07 01:08:52;;;;;;;34.95;17.00;;;;;;;8.49;100.00;100250.25;5086595;28;20020;-31
2022/12/07 01:11:20;;;;;;;30.38;14.55;;;;;;;8.43;100.00;100263.31;5086856;28;20042;-29
2022/12/07 01:13:46;;;;;;;32.63;16.27;;;;;;;8.35;100.00;100250.16;5085974;28;20020;-32
2022/12/07 01:16:15;;;;;;;34.58;16.20;;;;;;;8.33;100.00;100254.88;5086347;28;20085;-33
2022/12/07 01:18:41;;;;;;;34.03;17.15;;;;;;;8.18;100.00;100270.16;5086255;28;20507;-30
2022/12/07 01:21:09;;;;;;;34.63;16.75;;;;;;;8.12;100.00;100266.44;5067714;28;20024;-29
2022/12/07 01:23:35;;;;;;;41.20;20.15;;;;;;;7.89;100.00;100272.06;5086327;28;20027;-29
2022/12/07 01:26:05;;;;;;;37.38;17.92;;;;;;;8.01;100.00;100262.53;5067567;28;20040;-33
2022/12/07 01:28:30;;;;;;;37.53;18.00;;;;;;;8.03;100.00;100263.13;5086109;28;20056;-32
2022/12/07 01:31:01;;;;;;;36.55;18.30;;;;;;;8.07;100.00;100252.09;5086262;28;20121;-29
2022/12/07 01:33:32;;;;;;;41.22;19.70;;;;;;;7.96;100.00;100245.53;5086463;28;20058;-29
2022/12/07 01:36:07;;;;;;;36.08;18.42;;;;;;;8.16;100.00;100250.94;5067730;28;21033;-30
2022/12/07 01:38:33;;;;;;;44.65;20.45;;;;;;;7.94;100.00;100232.44;5067596;28;20093;-29
2022/12/07 01:41:00;;;;;;;44.03;19.88;;;;;;;8.05;100.00;100250.47;5067554;28;20503;-30
2022/12/07 01:43:28;;;;;;;40.67;19.63;;;;;;;8.02;100.00;100245.56;5067862;28;20522;-29
2022/12/07 01:45:54;;;;;;;46.55;20.52;;;;;;;7.89;100.00;100218.13;5067558;28;20491;-28
2022/12/07 01:48:25;;;;;;;42.38;21.38;;;;;;;8.10;99.79;100233.94;5086216;28;20040;-30
2022/12/07 01:50:53;;;;;;;43.13;22.38;;;;;;;8.02;100.00;100234.13;5066813;28;20016;-30
2022/12/07 01:53:24;;;;;;;45.22;21.65;;;;;;;7.96;100.00;100229.59;5085810;28;20120;-32
2022/12/07 01:55:52;;;;;;;39.97;20.67;;;;;;;7.84;100.00;100227.47;5085484;28;20047;-30
2022/12/07 01:58:18;;;;;;;46.50;21.95;;;;;;;7.85;100.00;100223.00;5067753;28;20043;-30
2022/12/07 02:00:43;;;;;;;45.78;23.70;;;;;;;7.84;100.00;100224.00;5085593;28;20499;-28
2022/12/07 02:03:20;;;;;;;50.42;23.63;;;;;;;7.63;100.00;100201.84;5085940;28;20028;-34
2022/12/07 02:05:47;;;;;;;47.83;24.27;;;;;;;7.79;100.00;100226.47;5067191;28;20064;-29
2022/12/07 02:08:13;;;;;;;44.38;22.90;;;;;;;7.54;100.00;100226.09;5085957;28;20032;-31
2022/12/07 02:10:39;;;;;;;51.08;23.48;;;;;;;7.50;100.00;100224.84;5067565;28;20530;-33
2022/12/07 02:13:15;;;;;;;44.75;23.55;;;;;;;7.63;100.00;100224.94;5067532;28;20032;-30
2022/12/07 02:16:08;;;;;;;48.53;24.80;;;;;;;7.65;100.00;100215.75;5067023;28;20036;-31
2022/12/07 02:19:08;;;;;;;46.92;22.75;;;;;;;7.65;100.00;100209.63;5085747;28;20135;-31
2022/12/07 02:21:37;;;;;;;55.22;25.80;;;;;;;7.72;100.00;100207.00;5067429;28;20039;-29
2022/12/07 02:24:11;;;;;;;;;;;;;;;7.69;100.00;100202.09;5085722;28;20089;-30
2022/12/07 02:27:04;;;;;;;53.70;26.00;;;;;;;7.59;99.48;100213.88;5085403;28;19923;-31
2022/12/07 02:29:57;;;;;;;55.53;26.00;;;;;;;7.45;100.00;100212.97;5085620;28;20149;-30
2022/12/07 02:32:25;;;;;;;52.90;27.38;;;;;;;7.49;99.99;100210.75;5085428;28;20115;-35
2022/12/07 02:35:12;;;;;;;57.50;26.88;;;;;;;7.38;99.46;100201.53;5085491;28;20059;-31
2022/12/07 02:38:04;;;;;;;54.92;26.98;;;;;;;7.30;100.00;100214.13;5067355;28;20040;-38
2022/12/07 02:40:29;;;;;;;53.97;26.98;;;;;;;7.02;100.00;100199.00;5067163;28;20400;-30
2022/12/07 02:43:07;;;;;;;55.58;27.75;;;;;;;7.11;100.00;100203.19;5085488;28;20028;-28
2022/12/07 02:45:35;;;;;;;60.13;28.67;;;;;;;7.30;100.00;100195.56;5085407;28;20020;-29
2022/12/07 02:48:03;;;;;;;55.15;27.65;;;;;;;7.18;100.00;100180.16;5067053;28;20028;-28
2022/12/07 02:50:28;;;;;;;58.20;27.95;;;;;;;7.37;100.00;100185.78;5067161;28;20031;-30
2022/12/07 02:52:54;;;;;;;52.70;26.70;;;;;;;7.24;100.00;100179.38;5067158;28;20055;-31
2022/12/07 02:55:26;;;;;;;55.20;27.13;;;;;;;7.31;100.00;100197.19;5067091;28;20027;-28
2022/12/07 02:58:10;;;;;;;52.58;26.67;;;;;;;7.37;100.00;100199.88;5084920;28;20072;-31
2022/12/07 03:00:52;;;;;;;56.05;27.15;;;;;;;7.32;100.00;100193.53;5085465;28;20119;-29
2022/12/07 03:03:18;;;;;;;59.40;27.00;;;;;;;7.34;100.00;100194.97;5088694;28;20032;-32
2022/12/07 03:05:53;;;;;;;60.72;28.55;;;;;;;7.34;100.00;100183.53;5070338;28;20024;-30
2022/12/07 03:08:36;;;;;;;58.50;27.60;;;;;;;7.46;100.00;100189.94;5088567;28;20335;-33
2022/12/07 03:11:09;;;;;;;54.45;26.50;;;;;;;7.16;100.00;100171.56;5088777;28;20527;-31
2022/12/07 03:14:12;;;;;;;53.90;25.30;;;;;;;7.38;100.00;100196.22;5088883;28;20560;-37
2022/12/07 03:16:55;;;;;;;53.55;27.00;;;;;;;7.13;100.00;100192.34;5060119;28;20100;-30
2022/12/07 03:19:24;;;;;;;54.90;26.60;;;;;;;7.07;100.00;100183.34;5088761;28;20047;-29
2022/12/07 03:21:56;;;;;;;52.65;27.35;;;;;;;7.11;100.00;100195.22;5088339;28;20026;-29
2022/12/07 03:24:26;;;;;;;56.22;28.73;;;;;;;7.33;100.00;100197.81;5088468;28;20028;-29
2022/12/07 03:26:57;;;;;;;56.63;27.55;;;;;;;7.24;100.00;100199.78;5070292;28;20039;-31
2022/12/07 03:29:38;;;;;;;54.95;25.85;;;;;;;7.21;100.00;100197.50;5070345;28;20071;-31
2022/12/07 03:32:21;;;;;;;57.05;26.08;;;;;;;7.14;100.00;100173.59;5070261;28;20039;-30
2022/12/07 03:35:13;;;;;;;53.40;26.38;;;;;;;7.12;100.00;100180.94;5088578;28;20070;-29
2022/12/07 03:37:45;;;;;;;54.00;25.83;;;;;;;7.36;99.78;100192.13;5076975;28;20130;-32
2022/12/07 03:40:23;;;;;;;50.67;25.50;;;;;;;7.31;99.74;100194.53;5088242;28;20051;-29
2022/12/07 03:42:51;;;;;;;56.55;26.58;;;;;;;7.28;99.79;100190.44;5070197;28;20040;-31
2022/12/07 03:45:17;;;;;;;53.30;27.27;;;;;;;7.22;99.91;100192.03;5088222;28;20024;-29
2022/12/07 03:47:49;;;;;;;55.10;28.48;;;;;;;7.33;100.00;100203.09;5087962;28;20035;-33
2022/12/07 03:50:30;;;;;;;56.28;27.55;;;;;;;7.43;98.77;100198.28;5069586;28;20147;-31
2022/12/07 03:53:12;;;;;;;53.15;26.17;;;;;;;7.33;99.26;100193.31;5088252;28;20028;-29
2022/12/07 03:55:43;;;;;;;55.92;27.52;;;;;;;7.14;100.00;100189.50;5087942;28;20034;-37
2022/12/07 03:58:12;;;;;;;56.38;25.40;;;;;;;7.40;99.78;100193.38;5069569;28;20156;-28
2022/12/07 04:00:38;;;;;;;50.38;26.05;;;;;;;7.41;98.73;100198.47;5087709;28;20024;-31
2022/12/07 04:03:03;;;;;;;58.28;27.58;;;;;;;7.48;98.10;100190.56;5088131;28;20145;-29
2022/12/07 04:05:29;;;;;;;55.40;26.20;;;;;;;7.31;98.42;100189.22;5052791;28;20034;-35
2022/12/07 04:07:54;;;;;;;53.83;26.60;;;;;;;7.30;98.16;100188.41;5069277;28;20123;-32
2022/12/07 04:10:20;;;;;;;49.97;26.00;;;;;;;7.23;98.53;100188.38;5087531;28;20024;-31
2022/12/07 04:12:45;;;;;;;51.72;25.77;;;;;;;7.22;98.85;100194.66;5087437;28;20073;-31
2022/12/07 04:15:11;;;;;;;48.10;24.45;;;;;;;7.21;99.03;100184.25;5086683;28;20024;-32
2022/12/07 04:17:37;;;;;;;53.30;25.55;;;;;;;7.26;98.53;100187.16;5087289;28;20047;-29
2022/12/07 04:20:04;;;;;;;55.22;26.10;;;;;;;7.08;99.29;100169.06;5069188;28;20134;-32
2022/12/07 04:22:30;;;;;;;53.20;26.02;;;;;;;7.05;99.67;100185.38;5069040;28;20473;-34
2022/12/07 04:24:55;;;;;;;47.40;24.55;;;;;;;7.05;99.32;100182.72;5087520;28;20536;-30
2022/12/07 04:27:21;;;;;;;48.72;23.85;;;;;;;7.14;98.78;100162.19;5087345;28;20032;-34
2022/12/07 04:29:46;;;;;;;47.50;24.63;;;;;;;7.31;98.41;100189.22;5068856;28;20488;-28
2022/12/07 04:32:11;;;;;;;46.03;24.17;;;;;;;7.32;98.20;100188.22;5087128;28;20111;-31
2022/12/07 04:34:37;;;;;;;48.63;23.58;;;;;;;7.24;98.33;100179.38;5087376;28;20038;-34
2022/12/07 04:37:02;;;;;;;45.13;23.15;;;;;;;6.94;99.90;100180.59;5068816;28;20047;-28
2022/12/07 04:39:31;;;;;;;48.70;23.63;;;;;;;7.16;99.28;100182.19;5087531;28;20221;-36
2022/12/07 04:41:57;;;;;;;44.08;22.45;;;;;;;7.08;98.08;100166.41;5086780;28;20032;-30
2022/12/07 04:44:23;;;;;;;47.50;22.70;;;;;;;7.32;98.58;100185.56;5068729;28;20035;-28
2022/12/07 04:46:49;;;;;;;49.60;23.48;;;;;;;7.22;98.38;100173.44;5068885;28;20139;-33
2022/12/07 04:49:15;;;;;;;44.97;21.77;;;;;;;7.08;98.40;100158.47;5068642;28;20110;-34
2022/12/07 04:51:41;;;;;;;44.08;21.92;;;;;;;7.04;99.58;100181.88;5087085;28;20116;-31
2022/12/07 04:54:07;;;;;;;43.63;21.55;;;;;;;7.18;99.15;100172.19;5086662;28;20036;-29
2022/12/07 04:56:34;;;;;;;45.22;22.80;;;;;;;7.12;99.89;100170.31;5086541;28;20028;-35
2022/12/07 04:59:00;;;;;;;46.53;22.02;;;;;;;7.14;100.00;100170.94;5086991;28;20024;-32
2022/12/07 05:01:26;;;;;;;42.67;22.38;;;;;;;7.01;100.00;100173.53;5068305;28;20032;-31
2022/12/07 05:03:51;;;;;;;46.90;21.73;;;;;;;6.94;100.00;100162.84;5068231;28;20036;-29
2022/12/07 05:06:17;;;;;;;49.63;23.38;;;;;;;6.99;100.00;100164.94;5086586;28;20038;-33
2022/12/07 05:08:42;;;;;;;45.70;22.13;;;;;;;7.07;100.00;100172.75;5086869;28;20028;-30
2022/12/07 05:11:37;;;;;;;47.45;21.80;;;;;;;7.19;100.00;100181.81;5086170;28;20130;-31
2022/12/07 05:13:55;;;;;;;47.30;22.60;;;;;;;7.32;100.00;100180.25;5086061;28;20057;-30
2022/12/07 05:16:20;;;;;;;41.45;22.23;;;;;;;7.29;99.73;100165.53;5068142;28;20035;-32
2022/12/07 05:18:46;;;;;;;40.85;21.48;;;;;;;7.04;100.00;100173.13;5086498;28;20099;-32
2022/12/07 05:21:11;;;;;;;42.60;20.80;;;;;;;7.10;100.00;100177.66;5086189;28;20135;-31
2022/12/07 05:23:37;;;;;;;43.53;20.75;;;;;;;7.08;100.00;100174.38;5086399;28;20028;-32
2022/12/07 05:26:02;;;;;;;44.63;23.45;;;;;;;7.16;100.00;100176.06;5085913;28;20043;-31
2022/12/07 05:28:27;;;;;;;45.38;23.35;;;;;;;7.03;100.00;100158.25;5068143;28;20089;-28
2022/12/07 05:30:53;;;;;;;43.90;22.65;;;;;;;7.28;100.00;100185.13;5086300;28;20111;-31
2022/12/07 05:33:18;;;;;;;45.80;22.90;;;;;;;6.94;100.00;100172.63;5068033;28;20085;-29
2022/12/07 05:35:44;;;;;;;51.05;26.67;;;;;;;6.90;100.00;100176.69;5085907;28;20035;-30
2022/12/07 05:38:09;;;;;;;41.65;21.20;;;;;;;7.17;100.00;100183.84;5051180;28;20031;-28
2022/12/07 05:40:36;;;;;;;42.97;21.88;;;;;;;7.20;100.00;100178.13;5085848;28;20063;-31
2022/12/07 05:43:02;;;;;;;47.37;23.00;;;;;;;7.31;100.00;100183.91;5067810;28;20032;-31
2022/12/07 05:45:27;;;;;;;52.60;24.35;;;;;;;7.08;99.81;100155.00;5086204;28;20062;-31
2022/12/07 05:47:53;;;;;;;53.63;24.30;;;;;;;7.21;100.00;100186.91;5085917;28;20028;-32
2022/12/07 05:50:18;;;;;;;51.28;23.70;;;;;;;7.13;100.00;100166.69;5067840;28;20032;-28
2022/12/07 05:52:44;;;;;;;44.88;24.80;;;;;;;7.29;100.00;100180.63;5085917;28;20483;-30
2022/12/07 05:55:09;;;;;;;44.38;23.55;;;;;;;7.40;99.83;100190.72;5085922;28;20028;-29
2022/12/07 05:57:34;;;;;;;45.35;23.58;;;;;;;7.60;99.18;100191.66;5067749;28;20781;-29
2022/12/07 06:00:00;;;;;;;45.00;21.48;;;;;;;7.37;100.00;100183.13;5085683;28;20058;-33
2022/12/07 06:02:28;;;;;;;41.72;21.88;;;;;;;7.40;99.36;100183.56;5085847;28;20030;-30
2022/12/07 06:04:54;;;;;;;43.30;21.55;;;;;;;7.40;99.95;100182.75;5085718;28;20054;-29
2022/12/07 06:07:19;;;;;;;46.30;22.00;;;;;;;7.55;98.63;100191.41;5086063;28;20801;-29
2022/12/07 06:09:45;;;;;;;44.28;23.75;;;;;;;7.24;99.10;100170.63;5085492;28;20024;-29
2022/12/07 06:14:56;;;;;;;41.17;22.55;;;;;;;7.15;100.00;100175.25;5085687;28;20031;-33
2022/12/07 06:17:21;;;;;;;44.53;21.77;;;;;;;7.30;100.00;100184.94;5085403;28;20052;-29
2022/12/07 06:19:47;;;;;;;41.67;21.92;;;;;;;7.35;100.00;100195.78;5085287;28;20032;-33
2022/12/07 06:22:12;;;;;;;43.25;22.90;;;;;;;7.43;100.00;100185.81;5066878;28;20028;-32
2022/12/07 06:24:39;;;;;;;42.65;23.23;;;;;;;7.45;100.00;100186.44;5085582;28;20024;-32
2022/12/07 06:27:04;;;;;;;46.25;23.73;;;;;;;7.62;99.40;100192.28;5067566;28;20519;-29
2022/12/07 06:29:30;;;;;;;41.40;21.38;;;;;;;7.32;99.81;100164.34;5085607;28;20024;-29
2022/12/07 06:31:56;;;;;;;44.90;19.80;;;;;;;7.51;100.00;100198.13;5085344;28;20078;-29
2022/12/07 06:34:23;;;;;;;41.10;22.20;;;;;;;7.51;99.56;100194.66;5085634;28;20107;-33
2022/12/07 06:36:51;;;;;;;44.33;21.90;;;;;;;7.40;100.00;100196.84;5067629;28;20040;-32
2022/12/07 06:39:18;;;;;;;43.83;22.63;;;;;;;7.39;100.00;100192.53;5071429;28;20127;-28
2022/12/07 06:41:43;;;;;;;42.38;21.27;;;;;;;7.26;99.94;100194.31;5089158;28;20057;-30
2022/12/07 06:44:09;;;;;;;48.17;22.77;;;;;;;7.38;99.82;100195.41;5089625;28;20028;-33
2022/12/07 06:46:37;;;;;;;48.45;22.45;;;;;;;7.69;99.08;100199.44;5070846;28;20024;-30
2022/12/07 06:49:04;;;;;;;47.78;22.35;;;;;;;7.57;98.94;100210.59;5089154;28;20035;-31
2022/12/07 06:51:30;;;;;;;45.72;23.38;;;;;;;7.57;98.23;100204.47;5088950;28;20475;-28
2022/12/07 06:53:55;;;;;;;50.15;23.92;;;;;;;7.61;98.44;100190.63;5088903;28;20555;-30
2022/12/07 06:56:22;;;;;;;45.67;22.92;;;;;;;7.42;97.93;100184.19;5089146;28;20115;-34
2022/12/07 06:58:48;;;;;;;44.55;23.13;;;;;;;7.53;97.95;100214.66;5070748;28;20056;-31
2022/12/07 07:01:16;;;;;;;45.17;24.40;;;;;;;7.53;97.80;100214.66;5089221;28;20074;-32
2022/12/07 07:03:42;;;;;;;47.45;24.75;;;;;;;7.49;98.25;100192.19;5070180;28;20043;-30
2022/12/07 07:06:09;;;;;;;49.25;24.05;;;;;;;7.71;97.83;100202.72;5089155;28;20049;-39
2022/12/07 07:08:35;;;;;;;48.05;25.15;;;;;;;7.57;98.41;100202.63;5070738;28;20042;-31
2022/12/07 07:11:01;;;;;;;50.83;26.48;;;;;;;7.47;98.68;100207.47;5089006;28;20028;-29
2022/12/07 07:13:27;;;;;;;49.80;25.10;;;;;;;7.55;98.64;100207.31;5070459;28;20039;-29
2022/12/07 07:15:52;;;;;;;45.63;24.85;;;;;;;7.65;98.35;100206.97;5088655;28;20107;-31
2022/12/07 07:18:18;;;;;;;50.58;26.23;;;;;;;7.69;97.68;100210.06;5088781;28;20066;-29
2022/12/07 07:20:43;;;;;;;55.92;28.20;;;;;;;7.52;98.53;100201.59;5088726;28;20056;-29
2022/12/07 07:23:09;;;;;;;47.47;23.95;;;;;;;7.71;98.56;100211.50;5070610;28;20157;-32
2022/12/07 07:25:34;;;;;;;48.72;26.90;;;;;;;7.76;98.35;100187.00;5088943;28;20025;-32
2022/12/07 07:28:00;;;;;;;51.92;27.23;;;;;;;7.85;97.33;100207.09;5070081;28;20468;-32
2022/12/07 07:30:26;;;;;;;75.05;37.83;;;;;;;7.94;98.02;100200.56;5070139;28;20023;-30
2022/12/07 07:32:55;;;;;;;56.95;26.33;;;;;;;7.95;96.90;100186.28;5088491;28;20397;-30
2022/12/07 07:35:21;;;;;;;48.80;25.17;;;;;;;7.90;97.53;100201.97;5088453;28;20066;-31
2022/12/07 07:37:46;;;;;;;51.00;25.08;;;;;;;8.15;96.13;100191.69;5088629;28;20471;-30
2022/12/07 07:40:11;;;;;;;54.10;27.17;;;;;;;8.35;95.46;100207.66;5088544;28;20589;-29
2022/12/07 07:42:37;;;;;;;94.95;38.08;;;;;;;8.47;94.00;100207.09;5088283;28;20040;-35
2022/12/07 07:45:03;;;;;;;60.45;30.75;;;;;;;8.15;95.68;100209.44;5088415;28;20081;-31
2022/12/07 07:47:28;;;;;;;54.47;27.52;;;;;;;8.20;96.25;100209.66;5088045;28;20024;-31
2022/12/07 07:49:54;;;;;;;76.25;36.10;;;;;;;8.45;95.47;100202.78;5088175;28;20476;-32
2022/12/07 07:52:19;;;;;;;77.07;33.30;;;;;;;8.42;95.41;100203.22;5088273;28;20484;-31
2022/12/07 07:54:45;;;;;;;79.03;34.08;;;;;;;8.59;94.03;100213.47;5088171;28;20028;-30
2022/12/07 07:57:10;;;;;;;110.80;44.17;;;;;;;8.55;93.67;100199.75;5088176;28;20539;-30
2022/12/07 07:59:35;;;;;;;99.10;38.35;;;;;;;8.47;93.78;100204.44;5087928;28;20034;-29
2022/12/07 08:02:01;;;;;;;92.80;39.80;;;;;;;8.46;94.86;100219.59;5087730;28;20142;-31
2022/12/07 08:04:26;;;;;;;58.13;29.00;;;;;;;8.57;94.57;100220.81;5088121;28;20049;-29
2022/12/07 08:06:52;;;;;;;60.15;30.27;;;;;;;8.59;94.07;100221.44;5088190;28;20111;-35
2022/12/07 08:09:17;;;;;;;53.78;28.65;;;;;;;8.54;94.82;100205.25;5088014;28;20028;-30
2022/12/07 08:11:43;;;;;;;64.10;31.05;;;;;;;8.61;94.49;100204.25;5087744;28;20385;-32
2022/12/07 08:14:10;;;;;;;53.03;27.30;;;;;;;8.69;94.80;100218.41;5087608;28;20448;-32
2022/12/07 08:16:35;;;;;;;48.28;25.92;;;;;;;8.95;93.74;100207.78;5068970;28;20036;-34
2022/12/07 08:19:01;;;;;;;46.65;25.00;;;;;;;9.14;92.84;100211.44;5069663;28;20635;-33
2022/12/07 08:21:26;;;;;;;56.65;28.13;;;;;;;9.19;91.60;100210.81;5087624;28;20032;-29
2022/12/07 08:23:52;;;;;;;56.50;26.48;;;;;;;9.16;92.11;100213.91;5069452;28;20035;-29
2022/12/07 08:26:17;;;;;;;48.55;26.33;;;;;;;9.15;92.80;100212.25;5087722;28;20035;-29
2022/12/07 08:28:44;;;;;;;43.25;24.50;;;;;;;9.44;92.28;100221.66;5087694;28;20039;-33
2022/12/07 08:31:13;;;;;;;47.17;26.05;;;;;;;9.40;92.50;100220.44;5069059;28;20040;-29
2022/12/07 08:33:39;;;;;;;53.75;29.50;;;;;;;9.55;92.22;100207.69;5069271;28;20852;-31
2022/12/07 08:36:13;;;;;;;50.70;25.77;;;;;;;9.98;91.47;100217.81;5069436;28;20488;-32
2022/12/07 08:38:40;;;;;;;50.95;29.73;;;;;;;10.13;89.54;100217.53;5087665;28;20052;-29
2022/12/07 08:41:07;;;;;;;48.17;26.37;;;;;;;10.11;88.82;100200.13;5069024;28;20526;-33
2022/12/07 08:43:34;;;;;;;51.33;26.02;;;;;;;10.31;90.37;100194.72;5068905;28;20053;-30
2022/12/07 08:46:05;;;;;;;46.60;27.33;;;;;;;10.87;86.63;100215.28;5068614;28;20039;-33
2022/12/07 08:48:32;;;;;;;79.60;40.33;;;;;;;11.05;85.77;100203.84;5068874;28;20118;-33
2022/12/07 08:50:57;;;;;;;50.88;25.88;;;;;;;11.22;84.07;100198.78;5087104;28;20031;-28
2022/12/07 08:53:25;;;;;;;49.85;25.85;;;;;;;11.38;84.27;100186.69;5068945;28;20063;-32
2022/12/07 08:55:51;;;;;;;48.28;25.70;;;;;;;11.88;82.52;100201.78;5068729;28;20032;-31
2022/12/07 08:58:16;;;;;;;60.45;31.88;;;;;;;12.09;81.57;100204.00;5086870;28;20035;-33
2022/12/07 09:00:42;;;;;;;48.40;24.75;;;;;;;12.26;79.91;100185.50;5068643;28;20020;-29
2022/12/07 09:03:07;;;;;;;39.00;21.88;;;;;;;12.51;78.23;100198.72;5068711;28;20020;-28
2022/12/07 09:05:33;;;;;;;45.15;22.73;;;;;;;12.78;77.23;100191.09;5087346;28;20024;-29
2022/12/07 09:08:01;;;;;;;39.60;20.55;;;;;;;12.69;75.60;100195.16;5086759;28;20574;-34
2022/12/07 09:10:29;;;;;;;39.22;21.17;;;;;;;12.49;78.28;100170.56;5068349;28;20044;-32
2022/12/07 09:12:54;;;;;;;39.00;21.08;;;;;;;12.59;75.09;100184.19;5067999;28;20040;-30
2022/12/07 09:15:20;;;;;;;37.92;19.10;;;;;;;12.75;75.12;100166.63;5068372;28;20024;-28
2022/12/07 09:17:45;;;;;;;37.25;19.33;;;;;;;12.65;74.54;100188.63;5086404;28;20500;-32
2022/12/07 09:20:11;;;;;;;37.58;20.92;;;;;;;12.89;74.17;100156.53;5068249;28;20032;-29
2022/12/07 09:22:37;;;;;;;34.75;19.15;;;;;;;12.84;74.17;100150.00;5067960;28;20064;-39
2022/12/07 09:25:04;;;;;;;37.90;19.67;;;;;;;13.16;73.87;100160.41;5086646;28;20055;-29
2022/12/07 09:27:30;;;;;;;36.58;20.60;;;;;;;13.21;73.47;100155.13;5068296;28;20042;-30
2022/12/07 09:29:56;;;;;;;36.88;19.77;;;;;;;13.30;71.49;100157.50;5068198;28;20581;-30
2022/12/07 09:32:22;;;;;;;33.90;18.63;;;;;;;13.08;73.46;100155.41;5068137;28;20067;-29
2022/12/07 09:34:47;;;;;;;38.67;19.45;;;;;;;13.27;72.88;100159.56;5086417;28;20419;-32
2022/12/07 09:37:12;;;;;;;34.63;21.23;;;;;;;13.53;72.99;100159.34;5086475;28;20028;-29
2022/12/07 09:39:38;;;;;;;42.20;23.40;;;;;;;13.65;73.04;100149.41;5085867;28;20030;-37
2022/12/07 09:42:06;;;;;;;38.10;25.27;;;;;;;13.97;70.86;100132.88;5067535;28;20392;-34
2022/12/07 09:44:32;;;;;;;38.55;19.75;;;;;;;13.99;72.67;100142.28;5086435;28;20061;-31
2022/12/07 09:46:59;;;;;;;34.40;19.30;;;;;;;13.62;73.04;100139.97;5086387;28;20036;-27
2022/12/07 09:49:27;;;;;;;33.20;18.52;;;;;;;13.51;73.09;100146.19;5067854;28;20028;-30
2022/12/07 09:52:24;;;;;;;35.00;18.98;;;;;;;13.29;73.19;100129.06;5067842;28;20028;-29
2022/12/07 09:54:51;;;;;;;36.78;18.40;;;;;;;13.43;73.47;100131.28;5067214;28;20064;-32
2022/12/07 09:57:17;;;;;;;30.67;16.63;;;;;;;13.91;68.82;100115.88;5067573;28;20442;-33
2022/12/07 09:59:43;;;;;;;29.10;16.10;;;;;;;13.83;72.43;100103.69;5067516;28;20528;-34
2022/12/07 10:02:41;;;;;;;33.92;18.27;;;;;;;14.26;70.96;100115.72;5086090;28;20072;-31
2022/12/07 10:05:13;;;;;;;33.22;19.77;;;;;;;14.36;67.80;100114.25;5085953;28;20051;-37
2022/12/07 10:07:39;;;;;;;33.72;17.80;;;;;;;13.92;71.19;100114.81;5067755;28;20028;-35
2022/12/07 10:10:14;;;;;;;40.60;22.90;;;;;;;13.88;70.13;100104.81;5067885;28;20031;-30
2022/12/07 10:13:01;;;;;;;36.10;17.67;;;;;;;13.49;71.37;100102.72;5070089;28;20059;-30
2022/12/07 10:15:52;;;;;;;33.22;17.20;;;;;;;13.71;70.45;100104.75;5064808;28;20071;-29
2022/12/07 10:18:26;;;;;;;28.38;15.30;;;;;;;14.18;67.23;100093.81;5089993;28;20052;-33
2022/12/07 10:21:12;;;;;;;30.25;15.13;;;;;;;14.73;66.39;100077.03;5090200;28;20027;-28
2022/12/07 10:24:02;;;;;;;30.83;14.57;;;;;;;14.76;67.64;100084.59;5071640;28;20118;-38
2022/12/07 10:26:28;;;;;;;29.88;16.27;;;;;;;14.82;68.04;100093.53;5078742;28;20040;-30
2022/12/07 10:28:55;;;;;;;26.33;14.60;;;;;;;14.45;66.24;100094.81;5071688;28;20050;-29
2022/12/07 10:31:23;;;;;;;26.92;14.60;;;;;;;14.64;66.36;100078.50;5071616;28;20044;-32
2022/12/07 10:33:54;;;;;;;;;;;;;;;15.07;65.38;100091.19;5071574;28;20422;-33
2022/12/07 10:36:31;;;;;;;28.25;14.85;;;;;;;15.71;64.05;100089.03;5071166;28;19908;-30
2022/12/07 10:39:02;;;;;;;26.23;14.45;;;;;;;16.09;62.42;100095.38;5090089;28;20031;-29
2022/12/07 10:41:27;;;;;;;24.23;12.65;;;;;;;15.90;58.95;100089.53;5089900;28;20024;-33
2022/12/07 10:43:55;;;;;;;22.77;12.57;;;;;;;15.94;61.38;100072.63;5089413;28;20024;-29
2022/12/07 10:46:34;;;;;;;41.28;24.10;;;;;;;15.78;61.33;100085.09;5071310;28;20514;-34
2022/12/07 10:49:19;;;;;;;32.42;16.52;;;;;;;16.16;59.87;100087.88;5071533;28;20498;-33
2022/12/07 10:51:53;;;;;;;33.95;17.48;;;;;;;15.72;60.23;100091.50;5071224;28;20032;-32
2022/12/07 10:54:38;;;;;;;44.55;24.60;;;;;;;15.29;63.20;100081.56;5070987;28;20477;-31
2022/12/07 10:57:19;;;;;;;43.25;21.60;;;;;;;15.68;61.72;100085.78;5070897;28;20036;-36
2022/12/07 11:00:21;;;;;;;27.95;12.30;;;;;;;15.98;58.72;100081.81;5071108;28;20031;-30
2022/12/07 11:03:16;;;;;;;27.25;13.50;;;;;;;16.32;59.87;100076.19;5051436;28;20101;-34
2022/12/07 11:05:55;;;;;;;26.88;14.27;;;;;;;15.21;61.69;100075.53;5089313;28;20554;-31
2022/12/07 11:08:23;;;;;;;25.38;13.38;;;;;;;15.00;65.21;100073.66;5071111;28;20040;-32
2022/12/07 11:11:33;;;;;;;24.73;12.38;;;;;;;14.77;63.56;100064.75;5089320;28;20073;-31
2022/12/07 11:14:10;;;;;;;25.92;12.32;;;;;;;14.75;64.62;100061.50;5085629;28;20040;-32
2022/12/07 11:16:55;;;;;;;24.17;12.93;;;;;;;15.54;61.98;100052.28;5070633;28;20680;-32
2022/12/07 11:19:40;;;;;;;24.58;12.27;;;;;;;16.04;61.08;100045.84;5089090;28;20460;-30
2022/12/07 11:22:16;;;;;;;26.08;12.73;;;;;;;16.41;59.85;100044.25;5070576;28;20027;-39
2022/12/07 11:25:06;;;;;;;23.38;13.35;;;;;;;16.35;59.98;100046.09;5070454;28;20146;-30